sensor_id;sensor_type;location;lat;lon;timestamp;P1;durP1;ratioP1;P2;durP2;ratioP2
18999;SDS011;9633;50.980;13.850;2023-07-29T00:00:37;3.33;;;2.60;;
18999;SDS011;9633;50.980;13.850;2023-07-29T00:02:10;2.63;;;2.43;;
18999;SDS011;9633;50.980;13.850;2023-07-29T00:03:44;3.13;;;2.43;;
18999;SDS011;9633;50.980;13.850;2023-07-29T00:05:16;4.30;;;2.80;;
18999;SDS011;9633;50.980;13.850;2023-07-29T00:06:49;3.30;;;2.60;;
18999;SDS011;9633;50.980;13.850;2023-07-29T00:08:22;4.63;;;2.70;;
18999;SDS011;9633;50.980;13.850;2023-07-29T00:09:56;4.30;;;2.83;;
18999;SDS011;9633;50.980;13.850;2023-07-29T00:11:28;3.77;;;2.83;;
18999;SDS011;9633;50.980;13.850;2023-07-29T00:13:01;2.60;;;2.40;;
18999;SDS011;9633;50.980;13.850;2023-07-29T00:14:33;4.27;;;2.60;;
18999;SDS011;9633;50.980;13.850;2023-07-29T00:16:07;3.80;;;2.60;;
18999;SDS011;9633;50.980;13.850;2023-07-29T00:17:39;3.67;;;2.63;;
18999;SDS011;9633;50.980;13.850;2023-07-29T00:19:12;2.83;;;2.60;;
18999;SDS011;9633;50.980;13.850;2023-07-29T00:20:44;2.80;;;2.50;;
18999;SDS011;9633;50.980;13.850;2023-07-29T00:22:17;3.00;;;2.70;;
18999;SDS011;9633;50.980;13.850;2023-07-29T00:23:51;2.77;;;2.57;;
18999;SDS011;9633;50.980;13.850;2023-07-29T00:25:24;3.00;;;2.80;;
18999;SDS011;9633;50.980;13.850;2023-07-29T00:26:56;2.90;;;2.70;;
18999;SDS011;9633;50.980;13.850;2023-07-29T00:28:31;3.03;;;2.60;;
18999;SDS011;9633;50.980;13.850;2023-07-29T00:30:05;5.47;;;2.87;;
18999;SDS011;9633;50.980;13.850;2023-07-29T00:31:38;4.03;;;2.53;;
18999;SDS011;9633;50.980;13.850;2023-07-29T00:33:11;2.60;;;2.40;;
18999;SDS011;9633;50.980;13.850;2023-07-29T00:34:43;2.90;;;2.50;;
18999;SDS011;9633;50.980;13.850;2023-07-29T00:36:16;2.97;;;2.40;;
18999;SDS011;9633;50.980;13.850;2023-07-29T00:37:49;2.50;;;2.30;;
18999;SDS011;9633;50.980;13.850;2023-07-29T00:39:23;2.83;;;2.33;;
18999;SDS011;9633;50.980;13.850;2023-07-29T00:40:56;3.60;;;2.60;;
18999;SDS011;9633;50.980;13.850;2023-07-29T00:42:30;3.33;;;2.50;;
18999;SDS011;9633;50.980;13.850;2023-07-29T00:44:02;3.20;;;2.57;;
18999;SDS011;9633;50.980;13.850;2023-07-29T00:45:35;2.97;;;2.77;;
18999;SDS011;9633;50.980;13.850;2023-07-29T00:47:07;3.00;;;2.80;;
18999;SDS011;9633;50.980;13.850;2023-07-29T00:48:41;3.03;;;2.60;;
18999;SDS011;9633;50.980;13.850;2023-07-29T00:50:14;2.90;;;2.67;;
18999;SDS011;9633;50.980;13.850;2023-07-29T00:51:48;2.67;;;2.47;;
18999;SDS011;9633;50.980;13.850;2023-07-29T00:53:21;2.80;;;2.57;;
18999;SDS011;9633;50.980;13.850;2023-07-29T00:54:55;3.33;;;2.50;;
18999;SDS011;9633;50.980;13.850;2023-07-29T00:56:28;2.80;;;2.60;;
18999;SDS011;9633;50.980;13.850;2023-07-29T00:58:01;3.00;;;2.70;;
18999;SDS011;9633;50.980;13.850;2023-07-29T00:59:34;2.60;;;2.40;;
18999;SDS011;9633;50.980;13.850;2023-07-29T01:01:08;3.10;;;2.60;;
18999;SDS011;9633;50.980;13.850;2023-07-29T01:02:41;2.83;;;2.63;;
18999;SDS011;9633;50.980;13.850;2023-07-29T01:04:14;4.07;;;3.00;;
18999;SDS011;9633;50.980;13.850;2023-07-29T01:05:50;2.97;;;2.77;;
18999;SDS011;9633;50.980;13.850;2023-07-29T01:07:33;3.77;;;2.57;;
18999;SDS011;9633;50.980;13.850;2023-07-29T01:09:12;3.73;;;3.00;;
18999;SDS011;9633;50.980;13.850;2023-07-29T01:10:58;3.47;;;2.60;;
18999;SDS011;9633;50.980;13.850;2023-07-29T01:12:36;2.90;;;2.70;;
18999;SDS011;9633;50.980;13.850;2023-07-29T01:14:20;2.83;;;2.57;;
18999;SDS011;9633;50.980;13.850;2023-07-29T01:16:00;4.73;;;2.60;;
18999;SDS011;9633;50.980;13.850;2023-07-29T01:17:38;3.17;;;2.70;;
18999;SDS011;9633;50.980;13.850;2023-07-29T01:19:26;2.97;;;2.67;;
18999;SDS011;9633;50.980;13.850;2023-07-29T01:21:13;3.87;;;2.60;;
18999;SDS011;9633;50.980;13.850;2023-07-29T01:22:49;2.87;;;2.67;;
18999;SDS011;9633;50.980;13.850;2023-07-29T01:24:23;2.93;;;2.73;;
18999;SDS011;9633;50.980;13.850;2023-07-29T01:25:56;4.77;;;2.87;;
18999;SDS011;9633;50.980;13.850;2023-07-29T01:27:28;3.40;;;3.10;;
18999;SDS011;9633;50.980;13.850;2023-07-29T01:29:03;3.00;;;2.80;;
18999;SDS011;9633;50.980;13.850;2023-07-29T01:30:37;3.70;;;2.90;;
18999;SDS011;9633;50.980;13.850;2023-07-29T01:32:14;3.60;;;3.07;;
18999;SDS011;9633;50.980;13.850;2023-07-29T01:33:58;3.57;;;3.10;;
18999;SDS011;9633;50.980;13.850;2023-07-29T01:35:36;4.87;;;3.10;;
18999;SDS011;9633;50.980;13.850;2023-07-29T01:37:16;2.80;;;2.50;;
18999;SDS011;9633;50.980;13.850;2023-07-29T01:38:51;4.13;;;3.07;;
18999;SDS011;9633;50.980;13.850;2023-07-29T01:40:27;3.07;;;2.87;;
18999;SDS011;9633;50.980;13.850;2023-07-29T01:42:00;3.27;;;2.90;;
18999;SDS011;9633;50.980;13.850;2023-07-29T01:43:34;3.30;;;3.00;;
18999;SDS011;9633;50.980;13.850;2023-07-29T01:45:13;3.10;;;2.60;;
18999;SDS011;9633;50.980;13.850;2023-07-29T01:46:46;3.37;;;2.80;;
18999;SDS011;9633;50.980;13.850;2023-07-29T01:48:19;3.00;;;2.73;;
18999;SDS011;9633;50.980;13.850;2023-07-29T01:49:53;3.73;;;2.90;;
18999;SDS011;9633;50.980;13.850;2023-07-29T01:51:26;3.47;;;3.17;;
18999;SDS011;9633;50.980;13.850;2023-07-29T01:52:59;3.33;;;3.03;;
18999;SDS011;9633;50.980;13.850;2023-07-29T01:54:32;3.67;;;3.00;;
18999;SDS011;9633;50.980;13.850;2023-07-29T01:56:06;4.53;;;2.83;;
18999;SDS011;9633;50.980;13.850;2023-07-29T01:57:42;3.10;;;2.90;;
18999;SDS011;9633;50.980;13.850;2023-07-29T01:59:16;4.30;;;3.13;;
18999;SDS011;9633;50.980;13.850;2023-07-29T02:00:49;3.20;;;2.90;;
18999;SDS011;9633;50.980;13.850;2023-07-29T02:02:21;4.43;;;2.93;;
18999;SDS011;9633;50.980;13.850;2023-07-29T02:03:55;4.27;;;3.13;;
18999;SDS011;9633;50.980;13.850;2023-07-29T02:05:28;3.67;;;3.10;;
18999;SDS011;9633;50.980;13.850;2023-07-29T02:07:01;4.07;;;3.63;;
18999;SDS011;9633;50.980;13.850;2023-07-29T02:08:33;6.47;;;3.27;;
18999;SDS011;9633;50.980;13.850;2023-07-29T02:10:07;3.80;;;3.40;;
18999;SDS011;9633;50.980;13.850;2023-07-29T02:11:42;5.47;;;3.30;;
18999;SDS011;9633;50.980;13.850;2023-07-29T02:13:14;3.73;;;3.00;;
18999;SDS011;9633;50.980;13.850;2023-07-29T02:14:47;3.57;;;3.27;;
18999;SDS011;9633;50.980;13.850;2023-07-29T02:16:20;3.43;;;3.13;;
18999;SDS011;9633;50.980;13.850;2023-07-29T02:17:54;2.87;;;2.57;;
18999;SDS011;9633;50.980;13.850;2023-07-29T02:19:26;3.30;;;2.63;;
18999;SDS011;9633;50.980;13.850;2023-07-29T02:20:59;3.47;;;2.80;;
18999;SDS011;9633;50.980;13.850;2023-07-29T02:22:31;2.73;;;2.47;;
18999;SDS011;9633;50.980;13.850;2023-07-29T02:24:05;3.23;;;2.40;;
18999;SDS011;9633;50.980;13.850;2023-07-29T02:25:37;2.40;;;2.20;;
18999;SDS011;9633;50.980;13.850;2023-07-29T02:27:11;3.73;;;2.70;;
18999;SDS011;9633;50.980;13.850;2023-07-29T02:28:43;4.20;;;2.67;;
18999;SDS011;9633;50.980;13.850;2023-07-29T02:30:17;2.70;;;2.50;;
18999;SDS011;9633;50.980;13.850;2023-07-29T02:31:49;3.10;;;2.80;;
18999;SDS011;9633;50.980;13.850;2023-07-29T02:33:22;2.80;;;2.60;;
18999;SDS011;9633;50.980;13.850;2023-07-29T02:34:55;3.40;;;2.50;;
18999;SDS011;9633;50.980;13.850;2023-07-29T02:36:29;3.03;;;2.23;;
18999;SDS011;9633;50.980;13.850;2023-07-29T02:38:01;3.40;;;2.67;;
18999;SDS011;9633;50.980;13.850;2023-07-29T02:39:34;4.70;;;3.00;;
18999;SDS011;9633;50.980;13.850;2023-07-29T02:41:07;3.37;;;3.07;;
18999;SDS011;9633;50.980;13.850;2023-07-29T02:42:42;2.73;;;2.53;;
18999;SDS011;9633;50.980;13.850;2023-07-29T02:44:14;3.53;;;3.23;;
18999;SDS011;9633;50.980;13.850;2023-07-29T02:45:48;3.40;;;3.10;;
18999;SDS011;9633;50.980;13.850;2023-07-29T02:47:20;3.43;;;3.20;;
18999;SDS011;9633;50.980;13.850;2023-07-29T02:48:53;3.27;;;3.03;;
18999;SDS011;9633;50.980;13.850;2023-07-29T02:50:26;3.20;;;2.60;;
18999;SDS011;9633;50.980;13.850;2023-07-29T02:51:59;3.20;;;2.90;;
18999;SDS011;9633;50.980;13.850;2023-07-29T02:53:32;4.63;;;3.20;;
18999;SDS011;9633;50.980;13.850;2023-07-29T02:55:05;4.07;;;2.83;;
18999;SDS011;9633;50.980;13.850;2023-07-29T02:56:38;3.00;;;2.77;;
18999;SDS011;9633;50.980;13.850;2023-07-29T02:58:12;3.97;;;2.87;;
18999;SDS011;9633;50.980;13.850;2023-07-29T02:59:44;3.33;;;3.13;;
18999;SDS011;9633;50.980;13.850;2023-07-29T03:01:17;4.70;;;2.80;;
18999;SDS011;9633;50.980;13.850;2023-07-29T03:02:50;4.30;;;3.27;;
18999;SDS011;9633;50.980;13.850;2023-07-29T03:04:23;3.40;;;3.10;;
18999;SDS011;9633;50.980;13.850;2023-07-29T03:05:59;3.27;;;2.80;;
18999;SDS011;9633;50.980;13.850;2023-07-29T03:07:33;3.47;;;2.73;;
18999;SDS011;9633;50.980;13.850;2023-07-29T03:09:06;3.23;;;3.00;;
18999;SDS011;9633;50.980;13.850;2023-07-29T03:10:38;3.17;;;2.87;;
18999;SDS011;9633;50.980;13.850;2023-07-29T03:12:13;4.23;;;2.83;;
18999;SDS011;9633;50.980;13.850;2023-07-29T03:13:46;4.40;;;2.70;;
18999;SDS011;9633;50.980;13.850;2023-07-29T03:15:22;3.17;;;2.83;;
18999;SDS011;9633;50.980;13.850;2023-07-29T03:16:55;3.17;;;2.87;;
18999;SDS011;9633;50.980;13.850;2023-07-29T03:18:29;3.13;;;2.83;;
18999;SDS011;9633;50.980;13.850;2023-07-29T03:20:01;2.90;;;2.57;;
18999;SDS011;9633;50.980;13.850;2023-07-29T03:21:35;3.47;;;3.17;;
18999;SDS011;9633;50.980;13.850;2023-07-29T03:23:07;3.93;;;2.67;;
18999;SDS011;9633;50.980;13.850;2023-07-29T03:24:40;2.90;;;2.70;;
18999;SDS011;9633;50.980;13.850;2023-07-29T03:26:14;4.30;;;2.93;;
18999;SDS011;9633;50.980;13.850;2023-07-29T03:27:47;5.10;;;2.87;;
18999;SDS011;9633;50.980;13.850;2023-07-29T03:29:22;3.03;;;2.70;;
18999;SDS011;9633;50.980;13.850;2023-07-29T03:30:56;3.20;;;2.90;;
18999;SDS011;9633;50.980;13.850;2023-07-29T03:32:28;4.23;;;2.80;;
18999;SDS011;9633;50.980;13.850;2023-07-29T03:34:01;3.67;;;2.80;;
18999;SDS011;9633;50.980;13.850;2023-07-29T03:35:35;2.77;;;2.57;;
18999;SDS011;9633;50.980;13.850;2023-07-29T03:37:07;3.00;;;2.70;;
18999;SDS011;9633;50.980;13.850;2023-07-29T03:38:41;3.13;;;2.70;;
18999;SDS011;9633;50.980;13.850;2023-07-29T03:40:16;3.00;;;2.70;;
18999;SDS011;9633;50.980;13.850;2023-07-29T03:41:49;3.77;;;2.70;;
18999;SDS011;9633;50.980;13.850;2023-07-29T03:43:22;3.27;;;2.60;;
18999;SDS011;9633;50.980;13.850;2023-07-29T03:44:56;3.20;;;2.67;;
18999;SDS011;9633;50.980;13.850;2023-07-29T03:46:30;3.57;;;2.70;;
18999;SDS011;9633;50.980;13.850;2023-07-29T03:48:03;2.80;;;2.60;;
18999;SDS011;9633;50.980;13.850;2023-07-29T03:49:37;2.73;;;2.50;;
18999;SDS011;9633;50.980;13.850;2023-07-29T03:51:10;4.23;;;2.90;;
18999;SDS011;9633;50.980;13.850;2023-07-29T03:52:43;3.93;;;2.60;;
18999;SDS011;9633;50.980;13.850;2023-07-29T03:54:16;2.47;;;2.20;;
18999;SDS011;9633;50.980;13.850;2023-07-29T03:55:49;3.60;;;2.33;;
18999;SDS011;9633;50.980;13.850;2023-07-29T03:57:22;3.20;;;2.70;;
18999;SDS011;9633;50.980;13.850;2023-07-29T03:59:01;3.10;;;2.80;;
18999;SDS011;9633;50.980;13.850;2023-07-29T04:00:36;3.20;;;2.63;;
18999;SDS011;9633;50.980;13.850;2023-07-29T04:02:09;2.70;;;2.50;;
18999;SDS011;9633;50.980;13.850;2023-07-29T04:03:41;2.83;;;2.63;;
18999;SDS011;9633;50.980;13.850;2023-07-29T04:05:14;3.93;;;2.43;;
18999;SDS011;9633;50.980;13.850;2023-07-29T04:06:47;2.90;;;2.37;;
18999;SDS011;9633;50.980;13.850;2023-07-29T04:08:20;2.90;;;2.33;;
18999;SDS011;9633;50.980;13.850;2023-07-29T04:09:52;3.00;;;2.50;;
18999;SDS011;9633;50.980;13.850;2023-07-29T04:11:26;3.83;;;2.83;;
18999;SDS011;9633;50.980;13.850;2023-07-29T04:12:58;2.87;;;2.30;;
18999;SDS011;9633;50.980;13.850;2023-07-29T04:14:31;3.03;;;2.83;;
18999;SDS011;9633;50.980;13.850;2023-07-29T04:16:05;2.70;;;2.10;;
18999;SDS011;9633;50.980;13.850;2023-07-29T04:17:38;4.30;;;2.20;;
18999;SDS011;9633;50.980;13.850;2023-07-29T04:19:10;2.53;;;2.33;;
18999;SDS011;9633;50.980;13.850;2023-07-29T04:20:44;2.90;;;2.20;;
18999;SDS011;9633;50.980;13.850;2023-07-29T04:22:16;2.80;;;1.87;;
18999;SDS011;9633;50.980;13.850;2023-07-29T04:23:49;2.03;;;1.93;;
18999;SDS011;9633;50.980;13.850;2023-07-29T04:25:21;2.67;;;2.20;;
18999;SDS011;9633;50.980;13.850;2023-07-29T04:26:54;2.70;;;2.50;;
18999;SDS011;9633;50.980;13.850;2023-07-29T04:28:27;3.20;;;2.10;;
18999;SDS011;9633;50.980;13.850;2023-07-29T04:30:00;2.20;;;2.00;;
18999;SDS011;9633;50.980;13.850;2023-07-29T04:31:34;3.47;;;2.30;;
18999;SDS011;9633;50.980;13.850;2023-07-29T04:33:08;2.70;;;1.87;;
18999;SDS011;9633;50.980;13.850;2023-07-29T04:34:41;2.30;;;2.10;;
18999;SDS011;9633;50.980;13.850;2023-07-29T04:36:14;2.50;;;1.93;;
18999;SDS011;9633;50.980;13.850;2023-07-29T04:37:48;2.93;;;1.97;;
18999;SDS011;9633;50.980;13.850;2023-07-29T04:39:21;2.30;;;2.10;;
18999;SDS011;9633;50.980;13.850;2023-07-29T04:40:54;2.20;;;2.00;;
18999;SDS011;9633;50.980;13.850;2023-07-29T04:42:26;3.33;;;1.83;;
18999;SDS011;9633;50.980;13.850;2023-07-29T04:44:00;3.10;;;2.20;;
18999;SDS011;9633;50.980;13.850;2023-07-29T04:45:32;2.13;;;1.93;;
18999;SDS011;9633;50.980;13.850;2023-07-29T04:47:06;1.93;;;1.83;;
18999;SDS011;9633;50.980;13.850;2023-07-29T04:48:39;3.83;;;2.03;;
18999;SDS011;9633;50.980;13.850;2023-07-29T04:50:12;2.70;;;2.00;;
18999;SDS011;9633;50.980;13.850;2023-07-29T04:51:45;2.77;;;2.10;;
18999;SDS011;9633;50.980;13.850;2023-07-29T04:53:18;2.97;;;2.20;;
18999;SDS011;9633;50.980;13.850;2023-07-29T04:54:50;2.07;;;1.90;;
18999;SDS011;9633;50.980;13.850;2023-07-29T04:56:23;2.13;;;2.00;;
18999;SDS011;9633;50.980;13.850;2023-07-29T04:57:56;4.00;;;2.40;;
18999;SDS011;9633;50.980;13.850;2023-07-29T04:59:29;1.93;;;1.83;;
18999;SDS011;9633;50.980;13.850;2023-07-29T05:01:01;2.47;;;1.50;;
18999;SDS011;9633;50.980;13.850;2023-07-29T05:02:36;3.63;;;1.90;;
18999;SDS011;9633;50.980;13.850;2023-07-29T05:04:08;3.20;;;1.60;;
18999;SDS011;9633;50.980;13.850;2023-07-29T05:05:41;3.00;;;2.10;;
18999;SDS011;9633;50.980;13.850;2023-07-29T05:07:14;1.80;;;1.70;;
18999;SDS011;9633;50.980;13.850;2023-07-29T05:08:47;2.57;;;1.87;;
18999;SDS011;9633;50.980;13.850;2023-07-29T05:10:20;2.37;;;1.90;;
18999;SDS011;9633;50.980;13.850;2023-07-29T05:11:53;3.50;;;1.90;;
18999;SDS011;9633;50.980;13.850;2023-07-29T05:13:25;2.23;;;2.03;;
18999;SDS011;9633;50.980;13.850;2023-07-29T05:14:58;2.90;;;2.00;;
18999;SDS011;9633;50.980;13.850;2023-07-29T05:16:30;2.20;;;2.00;;
18999;SDS011;9633;50.980;13.850;2023-07-29T05:18:06;1.80;;;1.70;;
18999;SDS011;9633;50.980;13.850;2023-07-29T05:19:39;3.30;;;1.77;;
18999;SDS011;9633;50.980;13.850;2023-07-29T05:21:11;2.23;;;2.03;;
18999;SDS011;9633;50.980;13.850;2023-07-29T05:22:45;2.70;;;1.50;;
18999;SDS011;9633;50.980;13.850;2023-07-29T05:24:19;3.40;;;1.90;;
18999;SDS011;9633;50.980;13.850;2023-07-29T05:25:52;2.20;;;1.70;;
18999;SDS011;9633;50.980;13.850;2023-07-29T05:27:24;2.07;;;1.90;;
18999;SDS011;9633;50.980;13.850;2023-07-29T05:28:57;1.87;;;1.60;;
18999;SDS011;9633;50.980;13.850;2023-07-29T05:30:30;2.10;;;1.83;;
18999;SDS011;9633;50.980;13.850;2023-07-29T05:32:05;3.00;;;1.90;;
18999;SDS011;9633;50.980;13.850;2023-07-29T05:33:40;2.03;;;1.77;;
18999;SDS011;9633;50.980;13.850;2023-07-29T05:35:12;1.70;;;1.60;;
18999;SDS011;9633;50.980;13.850;2023-07-29T05:36:46;1.63;;;1.53;;
18999;SDS011;9633;50.980;13.850;2023-07-29T05:38:18;1.60;;;1.50;;
18999;SDS011;9633;50.980;13.850;2023-07-29T05:39:51;3.37;;;1.67;;
18999;SDS011;9633;50.980;13.850;2023-07-29T05:41:23;2.37;;;1.70;;
18999;SDS011;9633;50.980;13.850;2023-07-29T05:42:57;2.20;;;1.50;;
18999;SDS011;9633;50.980;13.850;2023-07-29T05:44:30;2.50;;;1.67;;
18999;SDS011;9633;50.980;13.850;2023-07-29T05:46:04;1.60;;;1.50;;
18999;SDS011;9633;50.980;13.850;2023-07-29T05:47:36;3.20;;;1.57;;
18999;SDS011;9633;50.980;13.850;2023-07-29T05:49:11;2.63;;;1.60;;
18999;SDS011;9633;50.980;13.850;2023-07-29T05:50:46;1.57;;;1.40;;
18999;SDS011;9633;50.980;13.850;2023-07-29T05:52:18;1.90;;;1.57;;
18999;SDS011;9633;50.980;13.850;2023-07-29T05:53:51;2.97;;;1.10;;
18999;SDS011;9633;50.980;13.850;2023-07-29T05:55:24;1.43;;;1.33;;
18999;SDS011;9633;50.980;13.850;2023-07-29T05:56:57;2.03;;;1.00;;
18999;SDS011;9633;50.980;13.850;2023-07-29T05:58:30;2.17;;;1.27;;
18999;SDS011;9633;50.980;13.850;2023-07-29T06:00:03;1.80;;;1.07;;
18999;SDS011;9633;50.980;13.850;2023-07-29T06:01:43;2.33;;;1.33;;
18999;SDS011;9633;50.980;13.850;2023-07-29T06:03:17;1.40;;;1.00;;
18999;SDS011;9633;50.980;13.850;2023-07-29T06:04:51;1.87;;;1.30;;
18999;SDS011;9633;50.980;13.850;2023-07-29T06:06:24;1.70;;;1.10;;
18999;SDS011;9633;50.980;13.850;2023-07-29T06:07:56;2.20;;;1.37;;
18999;SDS011;9633;50.980;13.850;2023-07-29T06:09:30;1.27;;;1.00;;
18999;SDS011;9633;50.980;13.850;2023-07-29T06:11:03;1.57;;;1.10;;
18999;SDS011;9633;50.980;13.850;2023-07-29T06:12:37;1.30;;;1.20;;
18999;SDS011;9633;50.980;13.850;2023-07-29T06:14:10;1.67;;;1.13;;
18999;SDS011;9633;50.980;13.850;2023-07-29T06:15:42;1.20;;;0.90;;
18999;SDS011;9633;50.980;13.850;2023-07-29T06:17:16;3.90;;;1.50;;
18999;SDS011;9633;50.980;13.850;2023-07-29T06:18:50;2.07;;;1.13;;
18999;SDS011;9633;50.980;13.850;2023-07-29T06:20:25;1.20;;;1.10;;
18999;SDS011;9633;50.980;13.850;2023-07-29T06:21:59;3.63;;;1.10;;
18999;SDS011;9633;50.980;13.850;2023-07-29T06:23:32;1.07;;;1.00;;
18999;SDS011;9633;50.980;13.850;2023-07-29T06:25:06;1.47;;;1.10;;
18999;SDS011;9633;50.980;13.850;2023-07-29T06:26:38;1.67;;;1.00;;
18999;SDS011;9633;50.980;13.850;2023-07-29T06:28:11;3.17;;;1.20;;
18999;SDS011;9633;50.980;13.850;2023-07-29T06:29:44;1.40;;;1.10;;
18999;SDS011;9633;50.980;13.850;2023-07-29T06:31:17;1.47;;;1.13;;
18999;SDS011;9633;50.980;13.850;2023-07-29T06:32:49;2.20;;;1.10;;
18999;SDS011;9633;50.980;13.850;2023-07-29T06:34:22;4.70;;;2.20;;
18999;SDS011;9633;50.980;13.850;2023-07-29T06:35:58;1.70;;;1.00;;
18999;SDS011;9633;50.980;13.850;2023-07-29T06:37:30;1.97;;;0.97;;
18999;SDS011;9633;50.980;13.850;2023-07-29T06:39:04;2.17;;;1.50;;
18999;SDS011;9633;50.980;13.850;2023-07-29T06:40:36;1.17;;;1.07;;
18999;SDS011;9633;50.980;13.850;2023-07-29T06:42:10;1.53;;;1.17;;
18999;SDS011;9633;50.980;13.850;2023-07-29T06:43:42;1.33;;;1.07;;
18999;SDS011;9633;50.980;13.850;2023-07-29T06:45:15;2.10;;;0.93;;
18999;SDS011;9633;50.980;13.850;2023-07-29T06:46:47;2.30;;;1.00;;
18999;SDS011;9633;50.980;13.850;2023-07-29T06:48:21;2.10;;;1.10;;
18999;SDS011;9633;50.980;13.850;2023-07-29T06:49:53;1.10;;;1.00;;
18999;SDS011;9633;50.980;13.850;2023-07-29T06:51:28;1.10;;;1.00;;
18999;SDS011;9633;50.980;13.850;2023-07-29T06:53:03;1.03;;;0.83;;
18999;SDS011;9633;50.980;13.850;2023-07-29T06:54:37;0.70;;;0.70;;
18999;SDS011;9633;50.980;13.850;2023-07-29T06:56:09;1.60;;;1.10;;
18999;SDS011;9633;50.980;13.850;2023-07-29T06:57:42;1.23;;;0.87;;
18999;SDS011;9633;50.980;13.850;2023-07-29T06:59:15;0.77;;;0.77;;
18999;SDS011;9633;50.980;13.850;2023-07-29T07:00:48;0.97;;;0.90;;
18999;SDS011;9633;50.980;13.850;2023-07-29T07:02:21;1.33;;;0.97;;
18999;SDS011;9633;50.980;13.850;2023-07-29T07:03:53;0.80;;;0.80;;
18999;SDS011;9633;50.980;13.850;2023-07-29T07:05:29;1.10;;;1.00;;
18999;SDS011;9633;50.980;13.850;2023-07-29T07:07:04;0.87;;;0.87;;
18999;SDS011;9633;50.980;13.850;2023-07-29T07:08:38;1.07;;;1.00;;
18999;SDS011;9633;50.980;13.850;2023-07-29T07:10:10;1.57;;;1.10;;
18999;SDS011;9633;50.980;13.850;2023-07-29T07:11:43;1.10;;;1.00;;
18999;SDS011;9633;50.980;13.850;2023-07-29T07:13:15;1.43;;;1.00;;
18999;SDS011;9633;50.980;13.850;2023-07-29T07:14:48;1.10;;;1.00;;
18999;SDS011;9633;50.980;13.850;2023-07-29T07:16:20;1.20;;;0.90;;
18999;SDS011;9633;50.980;13.850;2023-07-29T07:17:54;1.20;;;1.10;;
18999;SDS011;9633;50.980;13.850;2023-07-29T07:19:26;1.10;;;0.93;;
18999;SDS011;9633;50.980;13.850;2023-07-29T07:20:59;1.23;;;1.00;;
18999;SDS011;9633;50.980;13.850;2023-07-29T07:22:32;1.37;;;1.00;;
18999;SDS011;9633;50.980;13.850;2023-07-29T07:24:06;1.57;;;0.93;;
18999;SDS011;9633;50.980;13.850;2023-07-29T07:25:38;2.00;;;1.00;;
18999;SDS011;9633;50.980;13.850;2023-07-29T07:27:12;0.90;;;0.90;;
18999;SDS011;9633;50.980;13.850;2023-07-29T07:28:45;0.90;;;0.90;;
18999;SDS011;9633;50.980;13.850;2023-07-29T07:30:18;0.90;;;0.90;;
18999;SDS011;9633;50.980;13.850;2023-07-29T07:31:51;1.20;;;1.10;;
18999;SDS011;9633;50.980;13.850;2023-07-29T07:33:24;0.97;;;0.87;;
18999;SDS011;9633;50.980;13.850;2023-07-29T07:34:58;1.27;;;0.90;;
18999;SDS011;9633;50.980;13.850;2023-07-29T07:36:30;1.50;;;1.00;;
18999;SDS011;9633;50.980;13.850;2023-07-29T07:38:04;1.00;;;0.90;;
18999;SDS011;9633;50.980;13.850;2023-07-29T07:39:38;0.83;;;0.83;;
18999;SDS011;9633;50.980;13.850;2023-07-29T07:41:12;1.10;;;1.00;;
18999;SDS011;9633;50.980;13.850;2023-07-29T07:42:44;0.80;;;0.77;;
18999;SDS011;9633;50.980;13.850;2023-07-29T07:44:17;0.83;;;0.83;;
18999;SDS011;9633;50.980;13.850;2023-07-29T07:45:51;0.80;;;0.80;;
18999;SDS011;9633;50.980;13.850;2023-07-29T07:47:28;1.37;;;1.10;;
18999;SDS011;9633;50.980;13.850;2023-07-29T07:49:02;1.83;;;1.00;;
18999;SDS011;9633;50.980;13.850;2023-07-29T07:50:34;1.23;;;0.97;;
18999;SDS011;9633;50.980;13.850;2023-07-29T07:52:07;1.00;;;0.90;;
18999;SDS011;9633;50.980;13.850;2023-07-29T07:53:40;1.70;;;0.87;;
18999;SDS011;9633;50.980;13.850;2023-07-29T07:55:14;2.23;;;0.90;;
18999;SDS011;9633;50.980;13.850;2023-07-29T07:56:47;1.47;;;0.83;;
18999;SDS011;9633;50.980;13.850;2023-07-29T07:58:20;1.10;;;1.00;;
18999;SDS011;9633;50.980;13.850;2023-07-29T07:59:52;0.80;;;0.80;;
18999;SDS011;9633;50.980;13.850;2023-07-29T08:01:25;0.80;;;0.80;;
18999;SDS011;9633;50.980;13.850;2023-07-29T08:02:58;1.40;;;1.20;;
18999;SDS011;9633;50.980;13.850;2023-07-29T08:04:31;1.40;;;1.10;;
18999;SDS011;9633;50.980;13.850;2023-07-29T08:06:03;1.23;;;1.13;;
18999;SDS011;9633;50.980;13.850;2023-07-29T08:07:41;1.07;;;0.87;;
18999;SDS011;9633;50.980;13.850;2023-07-29T08:09:14;1.33;;;0.93;;
18999;SDS011;9633;50.980;13.850;2023-07-29T08:10:47;1.20;;;1.00;;
18999;SDS011;9633;50.980;13.850;2023-07-29T08:12:20;1.33;;;1.20;;
18999;SDS011;9633;50.980;13.850;2023-07-29T08:13:53;2.07;;;1.10;;
18999;SDS011;9633;50.980;13.850;2023-07-29T08:15:25;1.10;;;1.00;;
18999;SDS011;9633;50.980;13.850;2023-07-29T08:16:59;1.20;;;1.00;;
18999;SDS011;9633;50.980;13.850;2023-07-29T08:18:32;1.23;;;1.00;;
18999;SDS011;9633;50.980;13.850;2023-07-29T08:20:06;0.70;;;0.70;;
18999;SDS011;9633;50.980;13.850;2023-07-29T08:21:39;1.10;;;0.90;;
18999;SDS011;9633;50.980;13.850;2023-07-29T08:23:12;1.00;;;0.80;;
18999;SDS011;9633;50.980;13.850;2023-07-29T08:24:46;1.10;;;0.90;;
18999;SDS011;9633;50.980;13.850;2023-07-29T08:26:19;2.47;;;0.97;;
18999;SDS011;9633;50.980;13.850;2023-07-29T08:27:51;1.10;;;1.00;;
18999;SDS011;9633;50.980;13.850;2023-07-29T08:29:25;1.07;;;0.70;;
18999;SDS011;9633;50.980;13.850;2023-07-29T08:30:58;0.73;;;0.73;;
18999;SDS011;9633;50.980;13.850;2023-07-29T08:32:30;0.80;;;0.80;;
18999;SDS011;9633;50.980;13.850;2023-07-29T08:34:04;1.43;;;0.80;;
18999;SDS011;9633;50.980;13.850;2023-07-29T08:35:37;1.00;;;0.90;;
18999;SDS011;9633;50.980;13.850;2023-07-29T08:37:09;1.00;;;0.90;;
18999;SDS011;9633;50.980;13.850;2023-07-29T08:38:43;3.33;;;0.80;;
18999;SDS011;9633;50.980;13.850;2023-07-29T08:40:17;0.70;;;0.70;;
18999;SDS011;9633;50.980;13.850;2023-07-29T08:41:57;0.80;;;0.80;;
18999;SDS011;9633;50.980;13.850;2023-07-29T08:43:36;1.30;;;0.70;;
18999;SDS011;9633;50.980;13.850;2023-07-29T08:45:10;1.13;;;0.73;;
18999;SDS011;9633;50.980;13.850;2023-07-29T08:46:44;0.83;;;0.60;;
18999;SDS011;9633;50.980;13.850;2023-07-29T08:48:17;0.60;;;0.60;;
18999;SDS011;9633;50.980;13.850;2023-07-29T08:49:56;0.70;;;0.70;;
18999;SDS011;9633;50.980;13.850;2023-07-29T08:51:31;0.57;;;0.57;;
18999;SDS011;9633;50.980;13.850;2023-07-29T08:53:05;1.17;;;0.63;;
18999;SDS011;9633;50.980;13.850;2023-07-29T08:54:38;1.13;;;0.60;;
18999;SDS011;9633;50.980;13.850;2023-07-29T08:56:12;0.60;;;0.47;;
18999;SDS011;9633;50.980;13.850;2023-07-29T08:57:45;0.70;;;0.70;;
18999;SDS011;9633;50.980;13.850;2023-07-29T08:59:18;0.60;;;0.60;;
18999;SDS011;9633;50.980;13.850;2023-07-29T09:00:52;0.77;;;0.70;;
18999;SDS011;9633;50.980;13.850;2023-07-29T09:02:24;0.73;;;0.73;;
18999;SDS011;9633;50.980;13.850;2023-07-29T09:03:58;0.80;;;0.60;;
18999;SDS011;9633;50.980;13.850;2023-07-29T09:05:31;0.83;;;0.70;;
18999;SDS011;9633;50.980;13.850;2023-07-29T09:07:05;0.83;;;0.73;;
18999;SDS011;9633;50.980;13.850;2023-07-29T09:08:40;0.70;;;0.70;;
18999;SDS011;9633;50.980;13.850;2023-07-29T09:10:13;0.70;;;0.70;;
18999;SDS011;9633;50.980;13.850;2023-07-29T09:11:48;1.40;;;0.83;;
18999;SDS011;9633;50.980;13.850;2023-07-29T09:13:20;0.70;;;0.70;;
18999;SDS011;9633;50.980;13.850;2023-07-29T09:14:54;0.90;;;0.90;;
18999;SDS011;9633;50.980;13.850;2023-07-29T09:16:26;2.17;;;0.90;;
18999;SDS011;9633;50.980;13.850;2023-07-29T09:18:00;0.70;;;0.70;;
18999;SDS011;9633;50.980;13.850;2023-07-29T09:19:41;1.17;;;0.80;;
18999;SDS011;9633;50.980;13.850;2023-07-29T09:21:15;0.80;;;0.80;;
18999;SDS011;9633;50.980;13.850;2023-07-29T09:22:48;0.83;;;0.83;;
18999;SDS011;9633;50.980;13.850;2023-07-29T09:24:21;2.50;;;0.90;;